Time;durP1;ratioP1;P1;durP2;ratioP2;P2;SDS_P1;SDS_P2;PMS_P1;PMS_P2;Temp;Humidity;BMP_temperature;BMP_pressure;BME280_temperature;BME280_humidity;BME280_pressure;Samples;Min_cycle;Max_cycle;Signal;HPM_P1;HPM_P2
2024/04/19 00:02:01;;;;;;;;;;;;;;;17.28;48.46;100194.94;5303104;27;1236;-47
2024/04/19 00:04:27;;;;;;;;;;;;;;;16.71;49.88;100196.03;5281977;27;1256;-45
2024/04/19 00:06:52;;;;;;;;;;;;;;;16.42;50.21;100198.38;5303656;27;1209;-49
2024/04/19 00:09:18;;;;;;;;;;;;;;;16.26;50.29;100197.00;5303386;27;1288;-49
2024/04/19 00:11:43;;;;;;;;;;;;;;;16.09;50.74;100201.00;5280608;27;1275;-51
2024/04/19 00:14:09;;;;;;;;;;;;;;;17.34;48.52;100199.72;5314203;27;1868;-46
2024/04/19 00:16:34;;;;;;;;;;;;;;;17.17;48.81;100197.63;5292524;27;1279;-48
2024/04/19 00:19:00;;;;;;;;;;;;;;;16.61;49.82;100195.09;5303849;27;1304;-49
2024/04/19 00:21:26;;;;;;;;;;;;;;;16.32;50.22;100188.53;5302984;27;1253;-48
2024/04/19 00:23:51;;;;;;;;;;;;;;;16.16;50.45;100191.59;5280499;27;1242;-47
2024/04/19 00:26:17;;;;;;;;;;;;;;;16.47;50.73;100206.81;5302838;27;3133;-44
2024/04/19 00:28:43;;;;;;;;;;;;;;;17.63;47.98;100207.00;5291573;27;1275;-51
2024/04/19 00:31:08;;;;;;;;;;;;;;;16.88;49.34;100207.06;5262687;27;1224;-50
2024/04/19 00:33:34;;;;;;;;;;;;;;;16.47;50.19;100210.31;5280083;27;1819;-48
2024/04/19 00:36:00;;;;;;;;;;;;;;;16.15;50.83;100203.13;5305071;27;1416;-49
2024/04/19 00:38:26;;;;;;;;;;;;;;;16.07;50.52;100210.88;5302463;27;1197;-50
2024/04/19 00:40:52;;;;;;;;;;;;;;;17.40;48.63;100219.59;5292196;27;1232;-49
2024/04/19 00:43:17;;;;;;;;;;;;;;;17.19;48.44;100215.16;5313620;27;1466;-51
2024/04/19 00:45:43;;;;;;;;;;;;;;;16.63;49.60;100217.88;5313352;27;1144;-47
2024/04/19 00:48:08;;;;;;;;;;;;;;;16.26;50.44;100219.06;5280586;27;1172;-51
2024/04/19 00:50:58;;;;;;;;;;;;;;;16.11;50.62;100218.50;5302985;27;1312;-50
2024/04/19 00:53:26;;;;;;;;;;;;;;;16.14;51.20;100220.91;5252918;27;1827;-51
2024/04/19 00:55:52;;;;;;;;;;;;;;;17.63;48.05;100217.63;5306418;27;2732;-48
2024/04/19 00:58:18;;;;;;;;;;;;;;;16.92;49.09;100234.19;5253587;27;1177;-48
2024/04/19 01:00:44;;;;;;;;;;;;;;;16.45;50.07;100240.63;5260421;27;1198;-48
2024/04/19 01:03:12;;;;;;;;;;;;;;;16.23;50.49;100232.56;5316310;27;1287;-46
2024/04/19 01:05:38;;;;;;;;;;;;;;;16.07;50.82;100234.75;5306677;27;1165;-49
2024/04/19 01:08:23;;;;;;;;;;;;;;;17.59;48.08;100237.50;5316756;27;1494;-50
2024/04/19 01:10:49;;;;;;;;;;;;;;;16.84;49.41;100245.47;5294889;27;1181;-50
2024/04/19 01:13:14;;;;;;;;;;;;;;;16.41;50.20;100240.03;5316428;26;1866;-47
2024/04/19 01:15:40;;;;;;;;;;;;;;;16.19;50.57;100249.72;5283661;27;1288;-53
2024/04/19 01:18:06;;;;;;;;;;;;;;;16.00;50.88;100245.00;5308010;27;1111;-49
2024/04/19 01:20:32;;;;;;;;;;;;;;;17.20;49.04;100254.03;5305872;27;1260;-52
2024/04/19 01:22:58;;;;;;;;;;;;;;;17.35;48.00;100257.22;5283240;27;1126;-48
2024/04/19 01:25:32;;;;;;;;;;;;;;;16.69;49.85;100252.88;5283474;27;2708;-49
2024/04/19 01:27:57;;;;;;;;;;;;;;;16.31;50.32;100252.34;5284121;27;1233;-51
2024/04/19 01:30:23;;;;;;;;;;;;;;;16.13;50.39;100266.94;5288619;27;1058;-47
2024/04/19 01:32:48;;;;;;;;;;;;;;;17.15;49.13;100263.38;5283552;27;1865;-52
2024/04/19 01:35:14;;;;;;;;;;;;;;;17.19;48.67;100265.66;5284124;27;1317;-49
2024/04/19 01:37:40;;;;;;;;;;;;;;;16.58;50.02;100273.16;5283921;27;1252;-48
2024/04/19 01:40:05;;;;;;;;;;;;;;;16.32;50.32;100272.59;5316907;27;1141;-49
2024/04/19 01:42:31;;;;;;;;;;;;;;;16.12;50.73;100270.59;5287138;27;1164;-50
2024/04/19 01:45:02;;;;;;;;;;;;;;;16.73;49.96;100278.22;5295666;27;1472;-50
2024/04/19 01:47:28;;;;;;;;;;;;;;;17.60;47.75;100273.75;5316090;27;1283;-46
2024/04/19 01:49:53;;;;;;;;;;;;;;;16.79;49.40;100271.56;5303782;27;1244;-48
2024/04/19 01:52:19;;;;;;;;;;;;;;;16.39;50.11;100269.38;5282747;27;1287;-49
2024/04/19 01:54:44;;;;;;;;;;;;;;;16.21;50.65;100273.47;5312660;27;2642;-48
2024/04/19 01:57:10;;;;;;;;;;;;;;;16.02;50.71;100273.13;5315923;27;1101;-47
2024/04/19 01:59:36;;;;;;;;;;;;;;;16.90;49.58;100284.81;5286678;27;1268;-50
2024/04/19 02:02:01;;;;;;;;;;;;;;;17.62;47.83;100281.59;5316045;27;1168;-49
2024/04/19 02:04:27;;;;;;;;;;;;;;;16.82;49.50;100277.47;5285118;27;1153;-48
2024/04/19 02:06:53;;;;;;;;;;;;;;;16.43;50.19;100274.41;5287356;27;1006;-49
2024/04/19 02:09:34;;;;;;;;;;;;;;;16.18;50.62;100274.56;5316265;27;1132;-50
2024/04/19 02:12:00;;;;;;;;;;;;;;;16.14;50.93;100283.72;5288292;27;1167;-51
2024/04/19 02:14:26;;;;;;;;;;;;;;;17.65;47.72;100280.50;5299015;27;1825;-50
2024/04/19 02:16:51;;;;;;;;;;;;;;;16.95;48.80;100285.28;5310739;27;1187;-53
2024/04/19 02:19:17;;;;;;;;;;;;;;;16.46;50.36;100283.00;5299510;27;1283;-52
2024/04/19 02:21:42;;;;;;;;;;;;;;;16.27;50.41;100289.75;5315221;27;1192;-47
2024/04/19 02:24:08;;;;;;;;;;;;;;;16.08;50.72;100289.53;5316281;27;1176;-46
2024/04/19 02:26:34;;;;;;;;;;;;;;;16.64;49.99;100290.44;5295031;27;2521;-48
2024/04/19 02:31:44;;;;;;;;;;;;;;;16.91;49.19;100290.97;5304909;27;1130;-50
2024/04/19 02:34:09;;;;;;;;;;;;;;;16.53;49.95;100289.47;5302088;27;1870;-52
2024/04/19 02:36:35;;;;;;;;;;;;;;;16.26;50.54;100290.75;5283793;27;1329;-50
2024/04/19 02:39:00;;;;;;;;;;;;;;;16.34;50.65;100294.56;5302026;27;1248;-48
2024/04/19 02:41:26;;;;;;;;;;;;;;;17.74;47.80;100290.34;5291795;27;1291;-50
2024/04/19 02:43:52;;;;;;;;;;;;;;;16.99;48.94;100297.34;5315862;27;1436;-50
2024/04/19 02:46:17;;;;;;;;;;;;;;;16.52;50.10;100295.78;5315390;27;1272;-47
2024/04/19 02:48:43;;;;;;;;;;;;;;;16.33;50.50;100304.34;5315766;27;1267;-46
2024/04/19 02:51:08;;;;;;;;;;;;;;;16.14;50.41;100308.47;5293321;27;1316;-52
2024/04/19 02:53:34;;;;;;;;;;;;;;;15.98;51.03;100314.09;5308004;27;1857;-49
2024/04/19 02:56:00;;;;;;;;;;;;;;;17.43;48.29;100317.75;5304791;27;2727;-51
2024/04/19 02:58:25;;;;;;;;;;;;;;;17.40;48.28;100317.97;5301608;27;1122;-49
2024/04/19 03:00:51;;;;;;;;;;;;;;;16.74;49.75;100317.94;5292858;27;1271;-48
2024/04/19 03:03:16;;;;;;;;;;;;;;;16.44;50.11;100327.41;5315344;27;1125;-48
2024/04/19 03:05:43;;;;;;;;;;;;;;;16.20;50.59;100335.50;5292486;27;1260;-49
2024/04/19 03:08:09;;;;;;;;;;;;;;;16.61;50.35;100335.84;5296158;27;1185;-50
2024/04/19 03:10:40;;;;;;;;;;;;;;;17.72;47.42;100341.03;5281734;27;1323;-49
2024/04/19 03:13:07;;;;;;;;;;;;;;;16.85;49.36;100343.63;5302700;27;1827;-50
2024/04/19 03:15:32;;;;;;;;;;;;;;;16.46;50.20;100354.69;5292094;27;1331;-50
2024/04/19 03:17:58;;;;;;;;;;;;;;;16.26;50.38;100354.44;5303998;27;1160;-48
2024/04/19 03:20:24;;;;;;;;;;;;;;;16.06;50.68;100350.69;5304143;27;1315;-48
2024/04/19 03:22:49;;;;;;;;;;;;;;;17.25;49.28;100366.13;5281310;27;1173;-47
2024/04/19 03:25:15;;;;;;;;;;;;;;;17.29;48.29;100358.75;5306419;27;2697;-45
2024/04/19 03:27:41;;;;;;;;;;;;;;;16.66;49.69;100360.22;5314854;27;1149;-48
2024/04/19 03:30:06;;;;;;;;;;;;;;;16.40;50.10;100361.31;5304025;26;1164;-46
2024/04/19 03:32:32;;;;;;;;;;;;;;;16.19;50.74;100368.28;5315292;27;1869;-45
2024/04/19 03:34:57;;;;;;;;;;;;;;;17.56;47.96;100369.91;5292057;27;1263;-49
2024/04/19 03:37:23;;;;;;;;;;;;;;;17.06;48.90;100368.59;5292961;27;1224;-49
2024/04/19 03:39:48;;;;;;;;;;;;;;;16.59;49.86;100383.75;5315058;27;1228;-48
2024/04/19 03:42:18;;;;;;;;;;;;;;;16.32;50.48;100382.28;5303150;27;1160;-50
2024/04/19 03:47:28;;;;;;;;;;;;;;;17.74;47.47;100397.63;5300101;27;1654;-47
2024/04/19 03:49:53;;;;;;;;;;;;;;;16.92;49.29;100397.13;5296538;27;1117;-47
2024/04/19 03:52:19;;;;;;;;;;;;;;;16.56;50.06;100402.59;5281926;27;1165;-49
2024/04/19 03:54:44;;;;;;;;;;;;;;;16.31;50.49;100409.81;5291813;27;2827;-49
2024/04/19 03:57:10;;;;;;;;;;;;;;;16.05;50.73;100407.34;5297438;27;1280;-50
2024/04/19 03:59:35;;;;;;;;;;;;;;;16.78;50.02;100403.56;5307294;27;1645;-46
2024/04/19 04:02:13;;;;;;;;;;;;;;;17.48;47.88;100408.59;5301095;27;1065;-49
2024/04/19 04:04:52;;;;;;;;;;;;;;;16.88;50.71;100411.63;5281154;27;1078;-47
2024/04/19 04:07:18;;;;;;;;;;;;;;;16.80;50.45;100414.88;5303363;27;1061;-51
2024/04/19 04:09:43;;;;;;;;;;;;;;;16.00;50.83;100410.34;5281266;27;1205;-44
2024/04/19 04:12:09;;;;;;;;;;;;;;;15.69;49.97;100417.09;5281256;27;1157;-49
2024/04/19 04:14:36;;;;;;;;;;;;;;;15.64;48.59;100417.44;5314710;27;1834;-46
2024/04/19 04:17:01;;;;;;;;;;;;;;;15.47;48.09;100418.66;5313710;27;1419;-47
2024/04/19 04:19:27;;;;;;;;;;;;;;;15.29;47.30;100411.97;5292520;27;1674;-48
2024/04/19 04:21:52;;;;;;;;;;;;;;;15.96;49.21;100422.13;5293453;27;1728;-51
2024/04/19 04:24:17;;;;;;;;;;;;;;;16.05;49.74;100422.44;5299020;27;1175;-50
2024/04/19 04:26:43;;;;;;;;;;;;;;;15.62;48.88;100424.66;5304164;27;2981;-50
2024/04/19 04:29:08;;;;;;;;;;;;;;;15.45;48.29;100424.09;5301206;26;1497;-48
2024/04/19 04:31:34;;;;;;;;;;;;;;;15.41;47.15;100423.47;5305690;27;1217;-52
2024/04/19 04:34:00;;;;;;;;;;;;;;;15.31;47.55;100419.81;5284162;27;1837;-48
2024/04/19 04:36:25;;;;;;;;;;;;;;;16.45;48.51;100432.63;5311832;27;1336;-47
2024/04/19 04:38:51;;;;;;;;;;;;;;;15.60;48.84;100423.94;5300521;27;1358;-45
2024/04/19 04:41:16;;;;;;;;;;;;;;;15.45;47.82;100436.53;5283609;27;1182;-49
2024/04/19 04:43:42;;;;;;;;;;;;;;;16.54;48.28;100433.72;5308631;27;1496;-48
2024/04/19 04:46:07;;;;;;;;;;;;;;;15.77;48.58;100434.13;5264673;27;1268;-48
2024/04/19 04:48:33;;;;;;;;;;;;;;;15.42;47.89;100442.88;5317734;27;1172;-44
2024/04/19 04:50:59;;;;;;;;;;;;;;;16.72;48.44;100428.78;5311182;27;1283;-46
2024/04/19 04:53:25;;;;;;;;;;;;;;;15.81;48.66;100429.44;5283509;27;1860;-48
2024/04/19 04:55:53;;;;;;;;;;;;;;;15.52;48.03;100425.34;5291231;27;2716;-50
2024/04/19 04:58:18;;;;;;;;;;;;;;;15.41;47.31;100404.09;5299437;27;1193;-47
2024/04/19 05:00:44;;;;;;;;;;;;;;;15.27;47.09;100399.78;5283477;27;1206;-47
2024/04/19 05:03:09;;;;;;;;;;;;;;;15.93;47.47;100402.94;5297976;27;1402;-43
2024/04/19 05:05:35;;;;;;;;;;;;;;;15.83;47.90;100398.31;5307031;27;1784;-48
2024/04/19 05:08:00;;;;;;;;;;;;;;;15.42;47.57;100396.03;5293976;27;1113;-43
2024/04/19 05:10:26;;;;;;;;;;;;;;;15.64;48.09;100414.78;5317337;27;1237;-46
2024/04/19 05:12:51;;;;;;;;;;;;;;;15.90;47.86;100411.97;5316905;26;1825;-49
2024/04/19 05:15:17;;;;;;;;;;;;;;;15.46;47.82;100424.94;5304178;27;1109;-48
2024/04/19 05:17:45;;;;;;;;;;;;;;;15.29;47.13;100433.19;5305802;27;1214;-50
2024/04/19 05:20:10;;;;;;;;;;;;;;;15.66;47.54;100442.88;5298048;27;1001;-48
2024/04/19 05:22:37;;;;;;;;;;;;;;;16.03;47.81;100449.91;5305852;27;1225;-47
2024/04/19 05:25:06;;;;;;;;;;;;;;;15.49;47.79;100456.53;5292500;27;2693;-45
2024/04/19 05:27:32;;;;;;;;;;;;;;;15.33;47.12;100467.41;5286752;27;1295;-47
2024/04/19 05:29:58;;;;;;;;;;;;;;;16.14;47.58;100474.78;5316798;27;1110;-48
2024/04/19 05:32:23;;;;;;;;;;;;;;;15.46;47.89;100476.16;5290348;27;1076;-48
2024/04/19 05:34:49;;;;;;;;;;;;;;;16.77;48.22;100486.84;5309311;27;1827;-48
2024/04/19 05:37:14;;;;;;;;;;;;;;;16.16;48.49;100480.84;5282747;27;1185;-44
2024/04/19 05:39:40;;;;;;;;;;;;;;;15.71;48.21;100482.31;5288757;27;1242;-48
2024/04/19 05:42:05;;;;;;;;;;;;;;;16.62;48.50;100483.56;5301904;27;1494;-49
2024/04/19 05:44:31;;;;;;;;;;;;;;;15.86;48.41;100488.31;5304304;27;1503;-47
2024/04/19 05:47:00;;;;;;;;;;;;;;;15.62;47.80;100489.16;5282883;27;1188;-48
2024/04/19 05:49:26;;;;;;;;;;;;;;;15.45;47.13;100493.00;5315098;27;1174;-46
2024/04/19 05:51:51;;;;;;;;;;;;;;;16.27;48.05;100499.44;5295923;27;1048;-46
2024/04/19 05:54:18;;;;;;;;;;;;;;;15.88;48.35;100499.63;5297709;27;1871;-49
2024/04/19 05:56:43;;;;;;;;;;;;;;;15.59;47.76;100499.13;5309384;27;2741;-47
2024/04/19 05:59:09;;;;;;;;;;;;;;;16.75;47.65;100499.41;5284239;27;1169;-43
2024/04/19 06:01:34;;;;;;;;;;;;;;;15.88;48.24;100494.31;5291561;27;1729;-47
2024/04/19 06:04:00;;;;;;;;;;;;;;;15.52;47.70;100493.41;5296265;27;1621;-49
2024/04/19 06:06:25;;;;;;;;;;;;;;;15.46;47.06;100500.03;5284427;27;1361;-54
2024/04/19 06:08:51;;;;;;;;;;;;;;;15.32;46.50;100506.31;5289615;27;1302;-49
2024/04/19 06:11:16;;;;;;;;;;;;;;;15.97;47.57;100513.16;5282200;27;1138;-49
2024/04/19 06:13:44;;;;;;;;;;;;;;;15.83;47.74;100516.84;5292844;27;1857;-50
2024/04/19 06:16:10;;;;;;;;;;;;;;;15.46;47.45;100517.72;5281972;27;1886;-46
2024/04/19 06:18:38;;;;;;;;;;;;;;;16.62;47.23;100515.44;5288192;27;1185;-49
2024/04/19 06:21:04;;;;;;;;;;;;;;;15.79;47.94;100516.22;5300505;27;1065;-49
2024/04/19 06:23:29;;;;;;;;;;;;;;;15.44;47.34;100520.50;5303728;27;1602;-49
2024/04/19 06:25:56;;;;;;;;;;;;;;;15.46;46.78;100520.38;5294573;27;2851;-49
2024/04/19 06:28:21;;;;;;;;;;;;;;;16.83;47.43;100512.94;5307259;27;1151;-45
2024/04/19 06:30:47;;;;;;;;;;;;;;;15.82;47.78;100507.19;5291511;27;1241;-47
2024/04/19 06:33:12;;;;;;;;;;;;;;;16.68;48.15;100509.69;5312548;27;1869;-48
2024/04/19 06:35:38;;;;;;;;;;;;;;;16.82;47.99;100502.41;5311009;27;1507;-48
2024/04/19 06:38:04;;;;;;;;;;;;;;;15.98;48.56;100505.13;5287220;27;1202;-47
2024/04/19 06:40:29;;;;;;;;;;;;;;;15.71;47.68;100505.34;5299048;27;1202;-47
2024/04/19 06:42:55;;;;;;;;;;;;;;;15.54;46.88;100507.41;5282215;27;1574;-47
2024/04/19 06:45:20;;;;;;;;;;;;;;;16.27;48.08;100512.72;5285600;26;1509;-45
2024/04/19 06:47:46;;;;;;;;;;;;;;;16.20;48.11;100511.47;5287260;27;1375;-44
2024/04/19 06:50:11;;;;;;;;;;;;;;;15.84;48.18;100515.88;5308628;27;1141;-46
2024/04/19 06:52:37;;;;;;;;;;;;;;;15.53;47.39;100509.22;5287890;27;1872;-49
2024/04/19 06:55:03;;;;;;;;;;;;;;;15.50;46.57;100509.44;5284151;27;2716;-45
2024/04/19 06:57:28;;;;;;;;;;;;;;;15.41;46.17;100496.84;5309973;27;1292;-43
2024/04/19 06:59:54;;;;;;;;;;;;;;;15.29;45.67;100507.38;5297036;27;1351;-45
2024/04/19 07:02:19;;;;;;;;;;;;;;;15.78;46.63;100509.25;5287578;27;1497;-48
2024/04/19 07:04:45;;;;;;;;;;;;;;;15.64;47.63;100512.91;5288578;27;1281;-48
2024/04/19 07:07:10;;;;;;;;;;;;;;;15.39;46.88;100515.53;5311861;27;1331;-46
2024/04/19 07:09:36;;;;;;;;;;;;;;;16.53;47.00;100509.88;5280980;27;1450;-48
2024/04/19 07:12:02;;;;;;;;;;;;;;;15.66;47.73;100509.16;5260425;27;1435;-47
2024/04/19 07:14:27;;;;;;;;;;;;;;;16.32;48.03;100514.16;5294878;27;1823;-51
2024/04/19 07:16:53;;;;;;;;;;;;;;;16.55;47.76;100514.25;5281928;27;1340;-47
2024/04/19 07:19:19;;;;;;;;;;;;;;;15.81;48.19;100513.47;5307918;27;1080;-45
2024/04/19 07:21:44;;;;;;;;;;;;;;;16.55;48.47;100514.25;5285531;27;1469;-51
2024/04/19 07:24:10;;;;;;;;;;;;;;;16.00;48.42;100519.13;5282668;27;1387;-47
2024/04/19 07:26:38;;;;;;;;;;;;;;;15.68;47.74;100511.72;5301740;27;2762;-46
2024/04/19 07:29:04;;;;;;;;;;;;;;;15.51;46.96;100515.59;5303219;27;1245;-49
2024/04/19 07:31:29;;;;;;;;;;;;;;;15.39;46.78;100519.97;5287361;27;1327;-44
2024/04/19 07:33:55;;;;;;;;;;;;;;;17.01;47.10;100525.75;5284733;27;1822;-46
2024/04/19 07:36:20;;;;;;;;;;;;;;;15.98;48.34;100525.50;5302672;27;1153;-48
2024/04/19 07:38:46;;;;;;;;;;;;;;;15.72;47.51;100528.22;5287004;27;1270;-44
2024/04/19 07:41:12;;;;;;;;;;;;;;;15.86;47.80;100525.44;5285691;27;1371;-45
2024/04/19 07:43:38;;;;;;;;;;;;;;;16.42;47.40;100538.19;5302892;27;1343;-46
2024/04/19 07:46:04;;;;;;;;;;;;;;;15.87;47.74;100531.56;5286855;27;1516;-45
2024/04/19 07:48:29;;;;;;;;;;;;;;;16.99;47.60;100551.59;5297637;27;1126;-45
2024/04/19 07:50:55;;;;;;;;;;;;;;;16.19;48.11;100548.75;5291337;27;1209;-43
2024/04/19 07:53:22;;;;;;;;;;;;;;;15.83;47.48;100540.72;5315184;27;1822;-47
2024/04/19 07:55:47;;;;;;;;;;;;;;;15.90;48.59;100541.94;5290012;27;2670;-45
2024/04/19 07:58:13;;;;;;;;;;;;;;;16.27;47.90;100541.06;5279743;27;1176;-45
2024/04/19 08:00:39;;;;;;;;;;;;;;;15.79;47.75;100538.31;5280922;27;1186;-47
2024/04/19 08:03:04;;;;;;;;;;;;;;;17.17;47.41;100532.53;5301661;27;1351;-51
2024/04/19 08:05:30;;;;;;;;;;;;;;;16.19;47.83;100524.88;5314229;27;1129;-43
2024/04/19 08:07:59;;;;;;;;;;;;;;;15.84;47.51;100531.81;5296305;27;1878;-48
2024/04/19 08:10:27;;;;;;;;;;;;;;;15.82;48.07;100542.53;5302182;27;1648;-44
2024/04/19 08:12:53;;;;;;;;;;;;;;;16.28;47.57;100534.81;5278079;27;1855;-46
2024/04/19 08:15:27;;;;;;;;;;;;;;;15.77;47.48;100529.59;5313047;27;1387;-45
2024/04/19 08:17:53;;;;;;;;;;;;;;;15.66;46.83;100533.03;5290899;27;1818;-45
2024/04/19 08:20:18;;;;;;;;;;;;;;;15.51;46.42;100534.16;5302832;27;1516;-46
2024/04/19 08:22:44;;;;;;;;;;;;;;;16.27;47.16;100522.47;5311033;27;1227;-45
2024/04/19 08:25:09;;;;;;;;;;;;;;;16.13;47.63;100510.25;5304864;27;2771;-47
2024/04/19 08:27:35;;;;;;;;;;;;;;;15.71;47.23;100510.66;5304109;27;1181;-48
2024/04/19 08:30:01;;;;;;;;;;;;;;;15.56;46.82;100518.75;5280778;27;1164;-48
2024/04/19 08:32:26;;;;;;;;;;;;;;;15.97;47.39;100511.38;5284555;27;1186;-46
2024/04/19 08:34:54;;;;;;;;;;;;;;;16.16;47.54;100505.53;5290338;27;1832;-44
2024/04/19 08:37:20;;;;;;;;;;;;;;;15.69;47.39;100507.25;5283128;27;1576;-47
2024/04/19 08:39:46;;;;;;;;;;;;;;;15.55;46.25;100495.84;5290202;27;1795;-47
2024/04/19 08:42:11;;;;;;;;;;;;;;;15.52;46.78;100504.88;5279674;27;1454;-49
2024/04/19 08:44:37;;;;;;;;;;;;;;;16.73;46.60;100502.16;5230180;27;1847;-46
2024/04/19 08:47:04;;;;;;;;;;;;;;;15.84;47.64;100505.28;5294606;27;1556;-49
2024/04/19 08:49:29;;;;;;;;;;;;;;;15.67;46.71;100496.75;5256477;27;1421;-52
2024/04/19 08:51:55;;;;;;;;;;;;;;;15.55;46.40;100503.78;5302561;27;1296;-53
2024/04/19 08:54:21;;;;;;;;;;;;;;;15.39;46.26;100496.13;5313050;27;2168;-53
2024/04/19 08:56:46;;;;;;;;;;;;;;;15.60;46.87;100498.19;5299769;27;2898;-53
2024/04/19 08:59:12;;;;;;;;;;;;;;;16.16;46.99;100497.59;5291398;27;1263;-51
2024/04/19 09:01:37;;;;;;;;;;;;;;;15.61;47.51;100498.06;5290645;27;1402;-49
2024/04/19 09:04:03;;;;;;;;;;;;;;;16.13;47.53;100489.84;5300328;27;1196;-51
2024/04/19 09:06:29;;;;;;;;;;;;;;;16.05;47.53;100494.06;5281347;27;1474;-51
2024/04/19 09:08:54;;;;;;;;;;;;;;;15.65;47.17;100499.53;5297468;27;1388;-50
2024/04/19 09:11:20;;;;;;;;;;;;;;;15.48;46.63;100495.44;5295367;27;1342;-50
2024/04/19 09:13:47;;;;;;;;;;;;;;;16.07;47.18;100490.34;5301087;27;1828;-52
2024/04/19 09:16:12;;;;;;;;;;;;;;;16.08;47.39;100486.69;5302759;27;1223;-49
2024/04/19 09:18:38;;;;;;;;;;;;;;;15.63;47.32;100493.47;5281701;27;1224;-48
2024/04/19 09:21:04;;;;;;;;;;;;;;;15.54;46.43;100502.13;5296426;27;1278;-53
2024/04/19 09:23:29;;;;;;;;;;;;;;;16.53;46.73;100496.59;5284284;27;1324;-50
2024/04/19 09:25:56;;;;;;;;;;;;;;;15.76;47.39;100481.97;5299842;27;2689;-49
2024/04/19 09:28:22;;;;;;;;;;;;;;;16.02;47.88;100484.53;5305095;27;1264;-44
2024/04/19 09:30:52;;;;;;;;;;;;;;;16.24;47.35;100483.75;5305696;27;1125;-47
2024/04/19 09:33:18;;;;;;;;;;;;;;;15.95;48.18;100483.28;5284438;27;1825;-50
2024/04/19 09:35:44;;;;;;;;;;;;;;;17.67;46.02;100480.69;5285071;27;1214;-46
2024/04/19 09:38:09;;;;;;;;;;;;;;;16.35;48.15;100480.28;5300853;27;1603;-49
2024/04/19 09:40:35;;;;;;;;;;;;;;;15.88;47.67;100475.75;5279186;27;1657;-50
2024/04/19 09:43:02;;;;;;;;;;;;;;;15.85;46.98;100478.63;5285964;27;1374;-46
2024/04/19 09:45:27;;;;;;;;;;;;;;;15.56;46.78;100471.03;5300071;27;2868;-49
2024/04/19 09:47:55;;;;;;;;;;;;;;;15.64;46.03;100475.78;5295868;27;2191;-48
2024/04/19 09:50:23;;;;;;;;;;;;;;;15.52;45.92;100467.75;5293078;27;1066;-52
2024/04/19 09:52:49;;;;;;;;;;;;;;;16.82;47.08;100475.84;5253572;27;1830;-49
2024/04/19 09:55:21;;;;;;;;;;;;;;;15.98;47.64;100462.66;5282923;27;1370;-47
2024/04/19 09:57:48;;;;;;;;;;;;;;;15.62;47.17;100453.81;5288663;27;1182;-49
2024/04/19 10:00:17;;;;;;;;;;;;;;;15.54;46.62;100452.59;5282901;27;1271;-46
2024/04/19 10:02:43;;;;;;;;;;;;;;;15.47;46.18;100453.13;5288813;27;1375;-47
2024/04/19 10:05:08;;;;;;;;;;;;;;;15.31;45.78;100446.31;5300022;27;1279;-50
2024/04/19 10:07:34;;;;;;;;;;;;;;;16.71;46.38;100445.69;5281204;27;1213;-49
2024/04/19 10:10:00;;;;;;;;;;;;;;;15.73;47.57;100437.94;5264004;27;1069;-49
2024/04/19 10:12:25;;;;;;;;;;;;;;;15.68;46.80;100440.13;5275145;27;1367;-49
2024/04/19 10:14:51;;;;;;;;;;;;;;;15.47;46.32;100437.22;5253251;27;1914;-49
2024/04/19 10:17:16;;;;;;;;;;;;;;;15.41;45.97;100430.59;5257633;27;1201;-50
2024/04/19 10:19:43;;;;;;;;;;;;;;;16.85;46.30;100441.09;5316278;27;1136;-47
2024/04/19 10:22:09;;;;;;;;;;;;;;;15.72;47.52;100432.75;5306273;27;1208;-49
2024/04/19 10:24:35;;;;;;;;;;;;;;;15.55;47.04;100441.03;5282010;27;1344;-49
2024/04/19 10:27:01;;;;;;;;;;;;;;;16.57;47.33;100438.78;5279307;27;1387;-49
2024/04/19 10:29:27;;;;;;;;;;;;;;;15.93;47.77;100427.69;5310686;27;1716;-54
2024/04/19 10:31:53;;;;;;;;;;;;;;;15.56;47.47;100425.97;5295145;27;1376;-47
2024/04/19 10:34:19;;;;;;;;;;;;;;;15.50;46.74;100434.34;5312466;27;1826;-49
2024/04/19 10:36:45;;;;;;;;;;;;;;;15.40;46.04;100431.53;5292831;27;1210;-47
2024/04/19 10:39:11;;;;;;;;;;;;;;;16.26;47.30;100423.44;5302791;27;1347;-48
2024/04/19 10:41:36;;;;;;;;;;;;;;;15.90;47.17;100425.22;5275335;27;1288;-48
2024/04/19 10:44:02;;;;;;;;;;;;;;;15.67;47.03;100426.00;5252635;27;1189;-49
2024/04/19 10:46:28;;;;;;;;;;;;;;;16.84;46.64;100431.41;5285116;27;1317;-49
2024/04/19 10:48:53;;;;;;;;;;;;;;;15.90;47.65;100425.22;5298939;27;1313;-49
2024/04/19 10:51:20;;;;;;;;;;;;;;;15.60;47.10;100424.75;5282998;27;1196;-50
2024/04/19 10:53:45;;;;;;;;;;;;;;;15.49;46.51;100428.22;5301901;27;1830;-50
2024/04/19 10:56:11;;;;;;;;;;;;;;;16.22;47.51;100437.03;5316645;27;1125;-50
2024/04/19 10:58:36;;;;;;;;;;;;;;;16.01;47.34;100427.13;5289580;27;1287;-49
2024/04/19 11:01:02;;;;;;;;;;;;;;;15.54;47.27;100419.94;5282329;27;1281;-51
2024/04/19 11:03:27;;;;;;;;;;;;;;;16.86;46.73;100425.03;5291400;27;1279;-49
2024/04/19 11:05:53;;;;;;;;;;;;;;;15.93;47.67;100427.69;5310277;27;1443;-49
2024/04/19 11:08:19;;;;;;;;;;;;;;;15.66;47.24;100426.13;5305575;27;1705;-49
2024/04/19 11:10:44;;;;;;;;;;;;;;;15.57;46.54;100434.75;5307620;27;1078;-50
2024/04/19 11:13:10;;;;;;;;;;;;;;;15.36;46.23;100425.63;5311551;27;1831;-46
2024/04/19 11:15:36;;;;;;;;;;;;;;;16.64;46.55;100436.50;5315717;27;1236;-51
2024/04/19 11:18:01;;;;;;;;;;;;;;;15.95;47.42;100424.91;5292516;27;1280;-49
2024/04/19 11:20:27;;;;;;;;;;;;;;;15.62;46.88;100433.47;5313212;27;1610;-51
2024/04/19 11:22:52;;;;;;;;;;;;;;;15.45;46.49;100426.75;5288282;27;1104;-49
2024/04/19 11:25:18;;;;;;;;;;;;;;;15.66;46.99;100432.25;5281946;27;1190;-50
2024/04/19 11:27:43;;;;;;;;;;;;;;;16.23;47.09;100426.31;5314208;27;1227;-53
2024/04/19 11:30:09;;;;;;;;;;;;;;;15.69;47.33;100425.03;5315077;27;1307;-51
2024/04/19 11:32:35;;;;;;;;;;;;;;;15.82;47.85;100422.31;5263396;27;1829;-54
2024/04/19 11:35:01;;;;;;;;;;;;;;;16.17;47.27;100418.81;5309264;27;1187;-50
2024/04/19 11:37:27;;;;;;;;;;;;;;;15.69;47.29;100428.53;5307157;27;1801;-50
2024/04/19 11:39:52;;;;;;;;;;;;;;;17.02;46.54;100429.97;5302843;27;1774;-50
2024/04/19 11:42:18;;;;;;;;;;;;;;;15.94;47.69;100425.84;5315483;27;1333;-52
2024/04/19 11:44:44;;;;;;;;;;;;;;;15.71;47.05;100425.78;5290718;27;1141;-54
2024/04/19 11:47:09;;;;;;;;;;;;;;;15.60;46.62;100410.69;5281260;27;1375;-55
2024/04/19 11:49:35;;;;;;;;;;;;;;;15.42;46.32;100413.72;5281338;27;1195;-57
2024/04/19 11:52:00;;;;;;;;;;;;;;;16.55;46.76;100414.16;5314085;27;1181;-56
2024/04/19 11:54:31;;;;;;;;;;;;;;;15.64;47.40;100402.38;5314730;27;1829;-56
2024/04/19 11:56:57;;;;;;;;;;;;;;;15.55;46.72;100403.91;5309452;27;1240;-52
2024/04/19 11:59:23;;;;;;;;;;;;;;;17.04;46.81;100397.94;5281318;27;1228;-52
2024/04/19 12:01:50;;;;;;;;;;;;;;;16.00;47.76;100404.19;5286668;27;1163;-55
2024/04/19 12:04:15;;;;;;;;;;;;;;;15.70;47.28;100397.59;5313666;27;1252;-56
2024/04/19 12:06:41;;;;;;;;;;;;;;;16.56;47.55;100388.47;5314923;27;1176;-56
2024/04/19 12:09:06;;;;;;;;;;;;;;;16.23;47.81;100390.97;5282820;27;1085;-54
2024/04/19 12:11:32;;;;;;;;;;;;;;;15.86;47.66;100384.84;5304004;27;1080;-55
2024/04/19 12:13:57;;;;;;;;;;;;;;;16.28;48.11;100381.69;5296631;27;1854;-57
2024/04/19 12:16:23;;;;;;;;;;;;;;;16.06;47.92;100390.47;5286039;27;1179;-55
2024/04/19 12:18:48;;;;;;;;;;;;;;;15.74;47.19;100383.13;5285845;27;1760;-51
2024/04/19 12:21:15;;;;;;;;;;;;;;;15.57;46.79;100374.63;5305515;27;1749;-48
2024/04/19 12:23:41;;;;;;;;;;;;;;;16.09;47.63;100386.72;5314441;27;1309;-52
2024/04/19 12:26:06;;;;;;;;;;;;;;;15.98;47.47;100390.19;5294492;27;1264;-57
2024/04/19 12:28:32;;;;;;;;;;;;;;;15.71;47.17;100388.66;5307853;27;1200;-58
2024/04/19 12:30:58;;;;;;;;;;;;;;;15.58;46.39;100383.44;5280912;27;1180;-57
2024/04/19 12:33:23;;;;;;;;;;;;;;;16.73;46.54;100387.13;5302740;27;1823;-52
2024/04/19 12:35:49;;;;;;;;;;;;;;;15.76;47.46;100375.91;5308168;27;1067;-56
2024/04/19 12:38:15;;;;;;;;;;;;;;;15.59;46.79;100380.66;5305320;27;1212;-49
2024/04/19 12:40:40;;;;;;;;;;;;;;;17.05;46.10;100385.50;5280280;27;1479;-52
2024/04/19 12:43:06;;;;;;;;;;;;;;;15.97;47.49;100386.69;5312338;27;1122;-54
2024/04/19 12:45:31;;;;;;;;;;;;;;;15.72;47.06;100383.22;5314158;27;1243;-55
2024/04/19 12:48:06;;;;;;;;;;;;;;;16.93;47.04;100376.72;5313165;27;1038;-54